sensor_id;sensor_type;location;lat;lon;timestamp;temperature;humidity
43099;DHT22;28715;51.988;6.020;2023-08-20T00:02:19;19.80;99.90
43099;DHT22;28715;51.988;6.020;2023-08-20T00:04:46;19.80;99.90
43099;DHT22;28715;51.988;6.020;2023-08-20T00:07:13;19.80;99.90
43099;DHT22;28715;51.988;6.020;2023-08-20T00:09:41;19.70;99.90
43099;DHT22;28715;51.988;6.020;2023-08-20T00:12:06;19.70;99.90
43099;DHT22;28715;51.988;6.020;2023-08-20T00:17:16;19.70;99.90
43099;DHT22;28715;51.988;6.020;2023-08-20T00:19:42;19.70;99.90
43099;DHT22;28715;51.988;6.020;2023-08-20T00:22:07;19.70;99.90
43099;DHT22;28715;51.988;6.020;2023-08-20T00:24:33;19.80;99.90
43099;DHT22;28715;51.988;6.020;2023-08-20T00:26:58;19.90;99.90
43099;DHT22;28715;51.988;6.020;2023-08-20T00:29:24;19.90;99.90
43099;DHT22;28715;51.988;6.020;2023-08-20T00:31:49;19.90;99.90
43099;DHT22;28715;51.988;6.020;2023-08-20T00:34:15;19.90;99.90
43099;DHT22;28715;51.988;6.020;2023-08-20T00:36:40;19.90;99.90
43099;DHT22;28715;51.988;6.020;2023-08-20T00:39:06;19.90;99.90
43099;DHT22;28715;51.988;6.020;2023-08-20T00:41:31;19.90;99.90
43099;DHT22;28715;51.988;6.020;2023-08-20T00:43:57;19.90;99.90
43099;DHT22;28715;51.988;6.020;2023-08-20T00:46:22;19.90;99.90
43099;DHT22;28715;51.988;6.020;2023-08-20T00:48:51;19.80;99.90
43099;DHT22;28715;51.988;6.020;2023-08-20T00:51:16;19.80;99.90
43099;DHT22;28715;51.988;6.020;2023-08-20T00:53:42;19.70;99.90
43099;DHT22;28715;51.988;6.020;2023-08-20T00:56:08;19.70;99.90
43099;DHT22;28715;51.988;6.020;2023-08-20T00:58:33;19.70;99.90
43099;DHT22;28715;51.988;6.020;2023-08-20T01:00:59;19.70;99.90
43099;DHT22;28715;51.988;6.020;2023-08-20T01:03:24;19.70;99.90
43099;DHT22;28715;51.988;6.020;2023-08-20T01:05:50;19.70;99.90
43099;DHT22;28715;51.988;6.020;2023-08-20T01:08:37;19.70;99.90
43099;DHT22;28715;51.988;6.020;2023-08-20T01:11:10;19.70;99.90
43099;DHT22;28715;51.988;6.020;2023-08-20T01:13:37;19.70;99.90
43099;DHT22;28715;51.988;6.020;2023-08-20T01:16:03;19.70;99.90
43099;DHT22;28715;51.988;6.020;2023-08-20T01:18:29;19.60;99.90
43099;DHT22;28715;51.988;6.020;2023-08-20T01:20:58;19.60;99.90
43099;DHT22;28715;51.988;6.020;2023-08-20T01:30:45;19.70;99.90
43099;DHT22;28715;51.988;6.020;2023-08-20T01:33:11;19.80;99.90
43099;DHT22;28715;51.988;6.020;2023-08-20T01:35:38;19.80;99.90
43099;DHT22;28715;51.988;6.020;2023-08-20T01:38:09;19.80;99.90
43099;DHT22;28715;51.988;6.020;2023-08-20T01:40:34;19.80;99.90
43099;DHT22;28715;51.988;6.020;2023-08-20T01:43:00;19.80;99.90
43099;DHT22;28715;51.988;6.020;2023-08-20T01:45:25;19.80;99.90
43099;DHT22;28715;51.988;6.020;2023-08-20T01:47:51;19.80;99.90
43099;DHT22;28715;51.988;6.020;2023-08-20T01:50:17;19.90;99.90
43099;DHT22;28715;51.988;6.020;2023-08-20T01:52:42;19.90;99.90
43099;DHT22;28715;51.988;6.020;2023-08-20T01:55:08;19.90;99.90
43099;DHT22;28715;51.988;6.020;2023-08-20T01:57:33;19.90;99.90
43099;DHT22;28715;51.988;6.020;2023-08-20T01:59:59;19.90;99.90
43099;DHT22;28715;51.988;6.020;2023-08-20T02:02:24;19.90;99.90
43099;DHT22;28715;51.988;6.020;2023-08-20T02:04:50;19.90;99.90
43099;DHT22;28715;51.988;6.020;2023-08-20T02:07:15;20.00;99.90
43099;DHT22;28715;51.988;6.020;2023-08-20T02:09:41;19.90;99.90
43099;DHT22;28715;51.988;6.020;2023-08-20T02:12:06;19.90;99.90
43099;DHT22;28715;51.988;6.020;2023-08-20T02:14:32;19.90;99.90
43099;DHT22;28715;51.988;6.020;2023-08-20T02:17:03;19.90;99.90
43099;DHT22;28715;51.988;6.020;2023-08-20T02:19:29;19.80;99.90
43099;DHT22;28715;51.988;6.020;2023-08-20T02:21:54;19.80;99.90
43099;DHT22;28715;51.988;6.020;2023-08-20T02:24:20;19.80;99.90
43099;DHT22;28715;51.988;6.020;2023-08-20T02:26:45;19.80;99.90
43099;DHT22;28715;51.988;6.020;2023-08-20T02:29:11;19.70;99.90
43099;DHT22;28715;51.988;6.020;2023-08-20T02:31:36;19.80;99.90
43099;DHT22;28715;51.988;6.020;2023-08-20T02:34:02;19.80;99.90
43099;DHT22;28715;51.988;6.020;2023-08-20T02:36:27;19.70;99.90
43099;DHT22;28715;51.988;6.020;2023-08-20T02:38:54;19.70;99.90
43099;DHT22;28715;51.988;6.020;2023-08-20T02:41:20;19.70;99.90
43099;DHT22;28715;51.988;6.020;2023-08-20T02:43:45;19.60;99.90
43099;DHT22;28715;51.988;6.020;2023-08-20T02:46:11;19.60;99.90
43099;DHT22;28715;51.988;6.020;2023-08-20T02:48:37;19.60;99.90
43099;DHT22;28715;51.988;6.020;2023-08-20T02:51:02;19.60;99.90
43099;DHT22;28715;51.988;6.020;2023-08-20T02:53:28;19.60;99.90
43099;DHT22;28715;51.988;6.020;2023-08-20T02:55:54;19.60;99.90
43099;DHT22;28715;51.988;6.020;2023-08-20T02:58:19;19.60;99.90
43099;DHT22;28715;51.988;6.020;2023-08-20T03:00:45;19.60;99.90
43099;DHT22;28715;51.988;6.020;2023-08-20T03:03:11;19.60;99.90
43099;DHT22;28715;51.988;6.020;2023-08-20T03:05:36;19.60;99.90
43099;DHT22;28715;51.988;6.020;2023-08-20T03:08:02;19.60;99.90
43099;DHT22;28715;51.988;6.020;2023-08-20T03:10:29;19.50;99.90
43099;DHT22;28715;51.988;6.020;2023-08-20T03:12:55;19.50;99.90
43099;DHT22;28715;51.988;6.020;2023-08-20T03:15:20;19.50;99.90
43099;DHT22;28715;51.988;6.020;2023-08-20T03:17:46;19.40;99.90
43099;DHT22;28715;51.988;6.020;2023-08-20T03:20:11;19.40;99.90
43099;DHT22;28715;51.988;6.020;2023-08-20T03:22:37;19.40;99.90
43099;DHT22;28715;51.988;6.020;2023-08-20T03:25:03;19.40;99.90
43099;DHT22;28715;51.988;6.020;2023-08-20T03:27:29;19.30;99.90
43099;DHT22;28715;51.988;6.020;2023-08-20T03:29:55;19.30;99.90
43099;DHT22;28715;51.988;6.020;2023-08-20T03:32:20;19.30;99.90
43099;DHT22;28715;51.988;6.020;2023-08-20T03:34:46;19.30;99.90
43099;DHT22;28715;51.988;6.020;2023-08-20T03:37:11;19.20;99.90
43099;DHT22;28715;51.988;6.020;2023-08-20T03:39:37;19.20;99.90
43099;DHT22;28715;51.988;6.020;2023-08-20T03:42:02;19.20;99.90
43099;DHT22;28715;51.988;6.020;2023-08-20T03:44:28;19.10;99.90
43099;DHT22;28715;51.988;6.020;2023-08-20T03:46:55;19.10;99.90
43099;DHT22;28715;51.988;6.020;2023-08-20T03:49:23;19.00;99.90
43099;DHT22;28715;51.988;6.020;2023-08-20T03:51:49;19.00;99.90
43099;DHT22;28715;51.988;6.020;2023-08-20T03:54:14;19.00;99.90
43099;DHT22;28715;51.988;6.020;2023-08-20T03:56:40;19.00;99.90
43099;DHT22;28715;51.988;6.020;2023-08-20T03:59:05;18.90;99.90
43099;DHT22;28715;51.988;6.020;2023-08-20T04:01:31;18.90;99.90
43099;DHT22;28715;51.988;6.020;2023-08-20T04:03:57;18.90;99.90
43099;DHT22;28715;51.988;6.020;2023-08-20T04:06:23;18.90;99.90
43099;DHT22;28715;51.988;6.020;2023-08-20T04:08:48;18.80;99.90
43099;DHT22;28715;51.988;6.020;2023-08-20T04:11:14;18.80;99.90
43099;DHT22;28715;51.988;6.020;2023-08-20T04:13:39;18.80;99.90
43099;DHT22;28715;51.988;6.020;2023-08-20T04:16:08;18.80;99.90
43099;DHT22;28715;51.988;6.020;2023-08-20T04:18:33;18.80;99.90
43099;DHT22;28715;51.988;6.020;2023-08-20T04:21:01;18.80;99.90
43099;DHT22;28715;51.988;6.020;2023-08-20T04:23:27;18.80;99.90
43099;DHT22;28715;51.988;6.020;2023-08-20T04:25:52;18.80;99.90
43099;DHT22;28715;51.988;6.020;2023-08-20T04:28:18;18.80;99.90
43099;DHT22;28715;51.988;6.020;2023-08-20T04:30:46;18.80;99.90
43099;DHT22;28715;51.988;6.020;2023-08-20T04:33:14;18.70;99.90
43099;DHT22;28715;51.988;6.020;2023-08-20T04:35:40;18.70;99.90
43099;DHT22;28715;51.988;6.020;2023-08-20T04:38:05;18.70;99.90
43099;DHT22;28715;51.988;6.020;2023-08-20T04:40:31;18.70;99.90
43099;DHT22;28715;51.988;6.020;2023-08-20T04:42:57;18.70;99.90
43099;DHT22;28715;51.988;6.020;2023-08-20T04:45:22;18.60;99.90
43099;DHT22;28715;51.988;6.020;2023-08-20T04:47:48;18.70;99.90
43099;DHT22;28715;51.988;6.020;2023-08-20T04:50:13;18.70;99.90
43099;DHT22;28715;51.988;6.020;2023-08-20T04:52:39;18.70;99.90
43099;DHT22;28715;51.988;6.020;2023-08-20T04:55:04;18.70;99.90
43099;DHT22;28715;51.988;6.020;2023-08-20T04:57:31;18.70;99.90
43099;DHT22;28715;51.988;6.020;2023-08-20T04:59:57;18.70;99.90
43099;DHT22;28715;51.988;6.020;2023-08-20T05:02:22;18.70;99.90
43099;DHT22;28715;51.988;6.020;2023-08-20T05:04:48;18.80;99.90
43099;DHT22;28715;51.988;6.020;2023-08-20T05:07:14;18.80;99.90
43099;DHT22;28715;51.988;6.020;2023-08-20T05:09:39;18.80;99.90
43099;DHT22;28715;51.988;6.020;2023-08-20T05:12:05;18.80;99.90
43099;DHT22;28715;51.988;6.020;2023-08-20T05:14:30;18.80;99.90
43099;DHT22;28715;51.988;6.020;2023-08-20T05:16:56;18.80;99.90
43099;DHT22;28715;51.988;6.020;2023-08-20T05:19:22;18.80;99.90
43099;DHT22;28715;51.988;6.020;2023-08-20T05:21:47;18.80;99.90
43099;DHT22;28715;51.988;6.020;2023-08-20T05:24:13;18.90;99.90
43099;DHT22;28715;51.988;6.020;2023-08-20T05:26:38;18.90;99.90
43099;DHT22;28715;51.988;6.020;2023-08-20T05:29:04;18.90;99.90
43099;DHT22;28715;51.988;6.020;2023-08-20T05:31:29;18.90;99.90
43099;DHT22;28715;51.988;6.020;2023-08-20T05:33:55;19.00;99.90
43099;DHT22;28715;51.988;6.020;2023-08-20T05:36:20;19.00;99.90
43099;DHT22;28715;51.988;6.020;2023-08-20T05:38:46;19.00;99.90
43099;DHT22;28715;51.988;6.020;2023-08-20T05:41:11;19.10;99.90
43099;DHT22;28715;51.988;6.020;2023-08-20T05:43:37;19.20;99.90
43099;DHT22;28715;51.988;6.020;2023-08-20T05:46:02;19.20;99.90
43099;DHT22;28715;51.988;6.020;2023-08-20T05:48:28;19.30;99.90
43099;DHT22;28715;51.988;6.020;2023-08-20T05:50:54;19.30;99.90
43099;DHT22;28715;51.988;6.020;2023-08-20T05:53:19;19.40;99.90
43099;DHT22;28715;51.988;6.020;2023-08-20T05:55:45;19.40;99.90
43099;DHT22;28715;51.988;6.020;2023-08-20T05:58:10;19.50;99.90
43099;DHT22;28715;51.988;6.020;2023-08-20T06:00:36;19.50;99.90
43099;DHT22;28715;51.988;6.020;2023-08-20T06:03:01;19.60;99.90
43099;DHT22;28715;51.988;6.020;2023-08-20T06:05:27;19.60;99.90
43099;DHT22;28715;51.988;6.020;2023-08-20T06:07:52;19.70;99.90
43099;DHT22;28715;51.988;6.020;2023-08-20T06:10:18;19.80;99.90
43099;DHT22;28715;51.988;6.020;2023-08-20T06:12:43;19.90;99.90
43099;DHT22;28715;51.988;6.020;2023-08-20T06:15:09;19.90;99.90
43099;DHT22;28715;51.988;6.020;2023-08-20T06:17:34;20.00;99.90
43099;DHT22;28715;51.988;6.020;2023-08-20T06:20:00;20.10;99.90
43099;DHT22;28715;51.988;6.020;2023-08-20T06:22:25;20.20;99.90
43099;DHT22;28715;51.988;6.020;2023-08-20T06:24:51;20.30;99.90
43099;DHT22;28715;51.988;6.020;2023-08-20T06:27:17;20.30;99.90
43099;DHT22;28715;51.988;6.020;2023-08-20T06:29:43;20.40;99.90
43099;DHT22;28715;51.988;6.020;2023-08-20T06:32:08;20.40;99.90
43099;DHT22;28715;51.988;6.020;2023-08-20T06:34:34;20.50;99.90
43099;DHT22;28715;51.988;6.020;2023-08-20T06:37:00;20.60;99.90
43099;DHT22;28715;51.988;6.020;2023-08-20T06:39:25;20.60;99.90
43099;DHT22;28715;51.988;6.020;2023-08-20T06:41:51;20.70;99.90
43099;DHT22;28715;51.988;6.020;2023-08-20T06:44:16;20.80;99.90
43099;DHT22;28715;51.988;6.020;2023-08-20T06:46:42;20.90;99.90
43099;DHT22;28715;51.988;6.020;2023-08-20T06:49:08;20.90;99.60
43099;DHT22;28715;51.988;6.020;2023-08-20T06:51:33;21.00;99.40
43099;DHT22;28715;51.988;6.020;2023-08-20T06:53:58;21.00;99.30
43099;DHT22;28715;51.988;6.020;2023-08-20T06:56:24;21.10;99.00
43099;DHT22;28715;51.988;6.020;2023-08-20T06:58:50;21.20;98.70
43099;DHT22;28715;51.988;6.020;2023-08-20T07:01:15;21.20;98.50
43099;DHT22;28715;51.988;6.020;2023-08-20T07:03:42;21.30;98.30
43099;DHT22;28715;51.988;6.020;2023-08-20T07:06:08;21.40;98.20
43099;DHT22;28715;51.988;6.020;2023-08-20T07:08:37;21.50;98.50
43099;DHT22;28715;51.988;6.020;2023-08-20T07:11:04;21.60;98.00
43099;DHT22;28715;51.988;6.020;2023-08-20T07:13:30;21.80;97.80
43099;DHT22;28715;51.988;6.020;2023-08-20T07:15:55;22.00;97.40
43099;DHT22;28715;51.988;6.020;2023-08-20T07:18:21;22.30;97.30
43099;DHT22;28715;51.988;6.020;2023-08-20T07:20:46;22.70;96.80
43099;DHT22;28715;51.988;6.020;2023-08-20T07:23:12;22.90;96.20
43099;DHT22;28715;51.988;6.020;2023-08-20T07:25:38;23.00;95.50
43099;DHT22;28715;51.988;6.020;2023-08-20T07:28:07;23.10;95.30
43099;DHT22;28715;51.988;6.020;2023-08-20T07:30:33;23.40;95.10
43099;DHT22;28715;51.988;6.020;2023-08-20T07:32:59;23.80;94.70
43099;DHT22;28715;51.988;6.020;2023-08-20T07:35:24;24.20;94.20
43099;DHT22;28715;51.988;6.020;2023-08-20T07:37:50;24.60;93.70
43099;DHT22;28715;51.988;6.020;2023-08-20T07:40:16;24.80;93.10
43099;DHT22;28715;51.988;6.020;2023-08-20T07:42:41;24.80;92.70
43099;DHT22;28715;51.988;6.020;2023-08-20T07:45:07;24.80;92.30
43099;DHT22;28715;51.988;6.020;2023-08-20T07:47:33;24.80;92.10
43099;DHT22;28715;51.988;6.020;2023-08-20T07:49:59;24.80;92.40
43099;DHT22;28715;51.988;6.020;2023-08-20T07:52:24;24.90;92.10
43099;DHT22;28715;51.988;6.020;2023-08-20T07:54:50;25.00;91.90
43099;DHT22;28715;51.988;6.020;2023-08-20T07:57:15;25.20;91.50
43099;DHT22;28715;51.988;6.020;2023-08-20T07:59:41;25.50;91.50
43099;DHT22;28715;51.988;6.020;2023-08-20T08:02:06;25.80;91.10
43099;DHT22;28715;51.988;6.020;2023-08-20T08:04:33;26.20;90.90
43099;DHT22;28715;51.988;6.020;2023-08-20T08:06:58;26.60;90.10
43099;DHT22;28715;51.988;6.020;2023-08-20T08:09:28;27.00;90.30
43099;DHT22;28715;51.988;6.020;2023-08-20T08:11:53;27.30;89.80
43099;DHT22;28715;51.988;6.020;2023-08-20T08:14:19;27.60;88.50
43099;DHT22;28715;51.988;6.020;2023-08-20T08:16:45;28.00;87.50
43099;DHT22;28715;51.988;6.020;2023-08-20T08:19:24;28.20;86.80
43099;DHT22;28715;51.988;6.020;2023-08-20T08:21:52;28.50;85.50
43099;DHT22;28715;51.988;6.020;2023-08-20T08:26:53;28.90;84.90
43099;DHT22;28715;51.988;6.020;2023-08-20T08:29:19;29.10;83.20
43099;DHT22;28715;51.988;6.020;2023-08-20T08:31:44;29.30;82.60
43099;DHT22;28715;51.988;6.020;2023-08-20T08:34:10;29.40;81.80
43099;DHT22;28715;51.988;6.020;2023-08-20T08:36:38;29.50;82.20
43099;DHT22;28715;51.988;6.020;2023-08-20T08:39:06;29.70;80.80
43099;DHT22;28715;51.988;6.020;2023-08-20T08:41:32;29.80;80.20
43099;DHT22;28715;51.988;6.020;2023-08-20T08:44:00;30.10;80.00
43099;DHT22;28715;51.988;6.020;2023-08-20T08:46:29;30.20;79.00
43099;DHT22;28715;51.988;6.020;2023-08-20T08:48:58;30.30;78.90
43099;DHT22;28715;51.988;6.020;2023-08-20T08:51:24;30.50;78.60
43099;DHT22;28715;51.988;6.020;2023-08-20T08:53:56;30.70;79.20
43099;DHT22;28715;51.988;6.020;2023-08-20T08:56:25;30.80;78.30
43099;DHT22;28715;51.988;6.020;2023-08-20T08:58:50;31.00;77.80
43099;DHT22;28715;51.988;6.020;2023-08-20T09:01:16;31.00;77.50
43099;DHT22;28715;51.988;6.020;2023-08-20T09:03:49;31.00;77.60
43099;DHT22;28715;51.988;6.020;2023-08-20T09:06:22;31.00;76.50
43099;DHT22;28715;51.988;6.020;2023-08-20T09:08:50;31.10;76.50
43099;DHT22;28715;51.988;6.020;2023-08-20T09:11:54;31.10;76.60
43099;DHT22;28715;51.988;6.020;2023-08-20T09:14:34;31.20;76.30
43099;DHT22;28715;51.988;6.020;2023-08-20T09:17:18;31.30;75.60
43099;DHT22;28715;51.988;6.020;2023-08-20T09:19:54;31.40;74.50
43099;DHT22;28715;51.988;6.020;2023-08-20T09:22:31;31.40;74.40
43099;DHT22;28715;51.988;6.020;2023-08-20T09:24:59;31.50;74.70
43099;DHT22;28715;51.988;6.020;2023-08-20T09:27:30;31.60;75.10
43099;DHT22;28715;51.988;6.020;2023-08-20T09:30:13;31.80;74.30
43099;DHT22;28715;51.988;6.020;2023-08-20T09:35:35;32.00;71.20
43099;DHT22;28715;51.988;6.020;2023-08-20T09:38:11;31.90;71.80
43099;DHT22;28715;51.988;6.020;2023-08-20T09:40:46;31.90;72.60
43099;DHT22;28715;51.988;6.020;2023-08-20T09:46:00;32.00;70.70
43099;DHT22;28715;51.988;6.020;2023-08-20T09:48:27;32.00;70.00
43099;DHT22;28715;51.988;6.020;2023-08-20T09:50:54;32.10;70.50
43099;DHT22;28715;51.988;6.020;2023-08-20T09:53:48;32.20;69.10
43099;DHT22;28715;51.988;6.020;2023-08-20T09:56:43;32.20;70.20
43099;DHT22;28715;51.988;6.020;2023-08-20T09:59:11;32.30;69.90
43099;DHT22;28715;51.988;6.020;2023-08-20T10:01:41;32.50;70.20
43099;DHT22;28715;51.988;6.020;2023-08-20T10:04:07;32.50;69.00
43099;DHT22;28715;51.988;6.020;2023-08-20T10:06:34;32.40;69.10
43099;DHT22;28715;51.988;6.020;2023-08-20T10:09:00;32.30;70.10
43099;DHT22;28715;51.988;6.020;2023-08-20T10:11:27;32.40;70.10
43099;DHT22;28715;51.988;6.020;2023-08-20T10:13:53;32.40;68.60
43099;DHT22;28715;51.988;6.020;2023-08-20T10:16:18;32.30;69.00
43099;DHT22;28715;51.988;6.020;2023-08-20T10:18:49;32.30;68.80
43099;DHT22;28715;51.988;6.020;2023-08-20T10:21:23;32.30;69.60
43099;DHT22;28715;51.988;6.020;2023-08-20T10:23:49;32.30;69.20
43099;DHT22;28715;51.988;6.020;2023-08-20T10:26:15;32.30;69.50
43099;DHT22;28715;51.988;6.020;2023-08-20T10:28:42;32.20;68.60
43099;DHT22;28715;51.988;6.020;2023-08-20T10:31:11;32.00;69.90
43099;DHT22;28715;51.988;6.020;2023-08-20T10:36:16;31.70;71.20
43099;DHT22;28715;51.988;6.020;2023-08-20T10:38:42;31.70;70.70
43099;DHT22;28715;51.988;6.020;2023-08-20T10:41:09;31.70;70.00
43099;DHT22;28715;51.988;6.020;2023-08-20T10:48:32;31.50;70.60
43099;DHT22;28715;51.988;6.020;2023-08-20T10:53:39;31.40;69.70
43099;DHT22;28715;51.988;6.020;2023-08-20T10:58:34;31.30;71.40
43099;DHT22;28715;51.988;6.020;2023-08-20T11:01:19;31.30;69.30
43099;DHT22;28715;51.988;6.020;2023-08-20T11:03:45;31.30;69.40
43099;DHT22;28715;51.988;6.020;2023-08-20T11:06:11;31.20;70.00
43099;DHT22;28715;51.988;6.020;2023-08-20T11:08:37;31.10;68.40
43099;DHT22;28715;51.988;6.020;2023-08-20T11:11:03;30.90;68.70
43099;DHT22;28715;51.988;6.020;2023-08-20T11:13:32;30.70;68.70
43099;DHT22;28715;51.988;6.020;2023-08-20T11:15:58;30.70;69.00
43099;DHT22;28715;51.988;6.020;2023-08-20T11:18:24;30.60;69.20
43099;DHT22;28715;51.988;6.020;2023-08-20T11:20:56;30.60;68.30
43099;DHT22;28715;51.988;6.020;2023-08-20T11:23:22;30.70;70.00
43099;DHT22;28715;51.988;6.020;2023-08-20T11:25:51;30.70;69.80
43099;DHT22;28715;51.988;6.020;2023-08-20T11:28:19;30.80;68.90
43099;DHT22;28715;51.988;6.020;2023-08-20T11:30:45;30.90;69.30
43099;DHT22;28715;51.988;6.020;2023-08-20T11:33:11;30.90;69.00
43099;DHT22;28715;51.988;6.020;2023-08-20T11:35:37;31.00;68.90
43099;DHT22;28715;51.988;6.020;2023-08-20T11:38:03;31.00;68.40
43099;DHT22;28715;51.988;6.020;2023-08-20T11:40:28;31.00;68.80
43099;DHT22;28715;51.988;6.020;2023-08-20T11:42:54;31.00;67.60
43099;DHT22;28715;51.988;6.020;2023-08-20T11:45:19;31.00;66.80
43099;DHT22;28715;51.988;6.020;2023-08-20T11:47:45;31.00;68.00
43099;DHT22;28715;51.988;6.020;2023-08-20T11:50:10;31.00;68.60
43099;DHT22;28715;51.988;6.020;2023-08-20T11:52:38;31.20;67.60
43099;DHT22;28715;51.988;6.020;2023-08-20T11:55:05;31.20;67.40
43099;DHT22;28715;51.988;6.020;2023-08-20T11:57:31;31.20;65.90
43099;DHT22;28715;51.988;6.020;2023-08-20T12:00:04;31.20;66.10
43099;DHT22;28715;51.988;6.020;2023-08-20T12:02:30;31.20;67.10
43099;DHT22;28715;51.988;6.020;2023-08-20T12:04:56;31.30;67.30
43099;DHT22;28715;51.988;6.020;2023-08-20T12:07:25;31.30;66.40
43099;DHT22;28715;51.988;6.020;2023-08-20T12:09:50;31.30;66.60
43099;DHT22;28715;51.988;6.020;2023-08-20T12:12:20;31.30;66.90
43099;DHT22;28715;51.988;6.020;2023-08-20T12:14:46;31.30;67.10
43099;DHT22;28715;51.988;6.020;2023-08-20T12:17:12;31.20;65.60
43099;DHT22;28715;51.988;6.020;2023-08-20T12:19:38;31.30;66.50
43099;DHT22;28715;51.988;6.020;2023-08-20T12:22:03;31.20;66.60
43099;DHT22;28715;51.988;6.020;2023-08-20T12:24:29;31.20;66.00
43099;DHT22;28715;51.988;6.020;2023-08-20T12:26:54;31.20;67.70
43099;DHT22;28715;51.988;6.020;2023-08-20T12:29:20;31.30;67.20
43099;DHT22;28715;51.988;6.020;2023-08-20T12:31:45;31.20;66.20
43099;DHT22;28715;51.988;6.020;2023-08-20T12:34:11;31.20;66.70
43099;DHT22;28715;51.988;6.020;2023-08-20T12:36:36;31.20;66.90
43099;DHT22;28715;51.988;6.020;2023-08-20T12:39:02;31.20;67.40
43099;DHT22;28715;51.988;6.020;2023-08-20T12:41:29;31.20;67.00
43099;DHT22;28715;51.988;6.020;2023-08-20T12:43:55;31.20;68.10
43099;DHT22;28715;51.988;6.020;2023-08-20T12:46:20;31.20;66.50
43099;DHT22;28715;51.988;6.020;2023-08-20T12:48:46;31.20;66.40
43099;DHT22;28715;51.988;6.020;2023-08-20T12:51:11;31.20;66.10
43099;DHT22;28715;51.988;6.020;2023-08-20T12:53:39;31.30;66.30
43099;DHT22;28715;51.988;6.020;2023-08-20T12:56:04;31.30;66.40
43099;DHT22;28715;51.988;6.020;2023-08-20T12:58:30;31.30;66.30
43099;DHT22;28715;51.988;6.020;2023-08-20T13:00:58;31.30;66.30
43099;DHT22;28715;51.988;6.020;2023-08-20T13:03:24;31.30;66.60
43099;DHT22;28715;51.988;6.020;2023-08-20T13:05:50;31.30;66.80
43099;DHT22;28715;51.988;6.020;2023-08-20T13:08:15;31.30;66.90
43099;DHT22;28715;51.988;6.020;2023-08-20T13:10:41;31.20;67.60
43099;DHT22;28715;51.988;6.020;2023-08-20T13:13:09;31.30;66.90
43099;DHT22;28715;51.988;6.020;2023-08-20T13:15:35;31.20;66.90
43099;DHT22;28715;51.988;6.020;2023-08-20T13:18:00;31.30;67.90
43099;DHT22;28715;51.988;6.020;2023-08-20T13:20:26;31.30;68.10
43099;DHT22;28715;51.988;6.020;2023-08-20T13:22:52;31.40;68.20
43099;DHT22;28715;51.988;6.020;2023-08-20T13:25:18;31.50;67.90
43099;DHT22;28715;51.988;6.020;2023-08-20T13:27:46;31.50;68.00
43099;DHT22;28715;51.988;6.020;2023-08-20T13:30:12;31.50;69.20
43099;DHT22;28715;51.988;6.020;2023-08-20T13:32:38;31.50;69.00
43099;DHT22;28715;51.988;6.020;2023-08-20T13:35:04;31.50;68.20
43099;DHT22;28715;51.988;6.020;2023-08-20T13:37:30;31.50;67.50
43099;DHT22;28715;51.988;6.020;2023-08-20T13:39:58;31.50;67.20
43099;DHT22;28715;51.988;6.020;2023-08-20T13:42:24;31.40;67.60
43099;DHT22;28715;51.988;6.020;2023-08-20T13:44:49;31.30;68.20
43099;DHT22;28715;51.988;6.020;2023-08-20T13:47:15;31.30;67.40
43099;DHT22;28715;51.988;6.020;2023-08-20T13:49:40;31.20;66.70
43099;DHT22;28715;51.988;6.020;2023-08-20T13:52:06;31.00;67.30
43099;DHT22;28715;51.988;6.020;2023-08-20T13:54:32;30.80;67.30
43099;DHT22;28715;51.988;6.020;2023-08-20T13:56:57;30.70;68.00
43099;DHT22;28715;51.988;6.020;2023-08-20T13:59:23;30.70;68.40
43099;DHT22;28715;51.988;6.020;2023-08-20T14:01:48;30.70;69.10
43099;DHT22;28715;51.988;6.020;2023-08-20T14:04:14;30.70;68.20
43099;DHT22;28715;51.988;6.020;2023-08-20T14:06:40;30.80;67.50
43099;DHT22;28715;51.988;6.020;2023-08-20T14:09:05;30.90;67.60
43099;DHT22;28715;51.988;6.020;2023-08-20T14:11:31;30.90;67.60
43099;DHT22;28715;51.988;6.020;2023-08-20T14:13:56;31.00;68.20
43099;DHT22;28715;51.988;6.020;2023-08-20T14:16:22;30.90;67.10
43099;DHT22;28715;51.988;6.020;2023-08-20T14:19:14;30.90;67.60
43099;DHT22;28715;51.988;6.020;2023-08-20T14:21:48;31.00;68.20
43099;DHT22;28715;51.988;6.020;2023-08-20T14:24:19;31.00;68.00
43099;DHT22;28715;51.988;6.020;2023-08-20T14:29:40;31.10;67.30
43099;DHT22;28715;51.988;6.020;2023-08-20T14:32:06;31.10;67.70
43099;DHT22;28715;51.988;6.020;2023-08-20T14:34:34;31.10;68.10
43099;DHT22;28715;51.988;6.020;2023-08-20T14:37:08;31.10;67.90
43099;DHT22;28715;51.988;6.020;2023-08-20T14:39:54;31.10;67.40
43099;DHT22;28715;51.988;6.020;2023-08-20T14:42:23;31.00;68.50
43099;DHT22;28715;51.988;6.020;2023-08-20T14:44:54;30.90;67.50
43099;DHT22;28715;51.988;6.020;2023-08-20T14:47:23;30.90;68.40
43099;DHT22;28715;51.988;6.020;2023-08-20T14:50:03;30.90;67.40
43099;DHT22;28715;51.988;6.020;2023-08-20T14:52:35;30.90;65.90
43099;DHT22;28715;51.988;6.020;2023-08-20T14:55:18;30.70;67.20
43099;DHT22;28715;51.988;6.020;2023-08-20T14:57:50;30.60;67.30
43099;DHT22;28715;51.988;6.020;2023-08-20T15:00:19;30.60;66.40
43099;DHT22;28715;51.988;6.020;2023-08-20T15:02:50;30.60;67.30
43099;DHT22;28715;51.988;6.020;2023-08-20T15:05:26;30.60;67.70
43099;DHT22;28715;51.988;6.020;2023-08-20T15:07:58;30.60;67.40
43099;DHT22;28715;51.988;6.020;2023-08-20T15:10:33;30.60;67.60
43099;DHT22;28715;51.988;6.020;2023-08-20T15:13:02;30.60;67.40
43099;DHT22;28715;51.988;6.020;2023-08-20T15:15:44;30.60;68.00
43099;DHT22;28715;51.988;6.020;2023-08-20T15:18:45;30.60;68.50
43099;DHT22;28715;51.988;6.020;2023-08-20T15:21:39;30.60;69.40
43099;DHT22;28715;51.988;6.020;2023-08-20T15:43:04;30.20;68.90
43099;DHT22;28715;51.988;6.020;2023-08-20T15:45:35;30.10;69.10
43099;DHT22;28715;51.988;6.020;2023-08-20T15:48:12;30.10;69.00
43099;DHT22;28715;51.988;6.020;2023-08-20T15:50:38;30.00;68.90
43099;DHT22;28715;51.988;6.020;2023-08-20T15:53:03;30.00;69.90
43099;DHT22;28715;51.988;6.020;2023-08-20T15:55:29;30.00;70.00
43099;DHT22;28715;51.988;6.020;2023-08-20T15:57:54;30.00;69.50
43099;DHT22;28715;51.988;6.020;2023-08-20T16:00:20;30.00;69.50
43099;DHT22;28715;51.988;6.020;2023-08-20T16:02:46;30.00;69.40
43099;DHT22;28715;51.988;6.020;2023-08-20T16:05:12;30.00;69.80
43099;DHT22;28715;51.988;6.020;2023-08-20T16:07:38;30.10;70.60
43099;DHT22;28715;51.988;6.020;2023-08-20T16:10:03;30.10;70.40
43099;DHT22;28715;51.988;6.020;2023-08-20T16:12:30;30.10;69.90
43099;DHT22;28715;51.988;6.020;2023-08-20T16:14:55;30.00;70.00
43099;DHT22;28715;51.988;6.020;2023-08-20T16:17:21;29.90;68.80
43099;DHT22;28715;51.988;6.020;2023-08-20T16:19:46;29.80;69.10
43099;DHT22;28715;51.988;6.020;2023-08-20T16:22:12;29.70;69.30
43099;DHT22;28715;51.988;6.020;2023-08-20T16:24:38;29.60;69.50